Flight Track Log - Related Links

Times and Time Zones

All times are in EDT time to prevent confusion due to time zone crossing. See the N534QS flight status page for this flight to view local times or setup timezone preferences in your user account.

Time Position Orientation Groundspeed Altitude Reporting Facility
EDT Latitude Longitude Course Direction KTS MPH feet Rate Location/Type
Fri 09:29:10 AM 43.6667 -79.5833 65° Northeast 60 69 600  Level Toronto Center
Fri 09:30:10 AM 43.6833 -79.5333 65° Northeast 180 207 3,900 3,350 Climbing Toronto Center
Fri 09:31:10 AM 43.7333 -79.4667 44° Northeast 230 265 7,300 3,800 Climbing Toronto Center
Fri 09:32:10 AM 43.7000 -79.3833 119° Southeast 290 334 11,500 3,700 Climbing Toronto Center
Fri 09:33:10 AM 43.6167 -79.3500 164° South 320 368 14,700 2,550 Climbing Toronto Center
Fri 09:34:10 AM 43.5333 -79.4500 221° Southwest 370 426 16,600 2,500 Climbing Toronto Center
Fri 09:35:10 AM 43.4333 -79.5000 200° South 400 460 19,700 3,150 Climbing Toronto Center
Fri 09:36:10 AM 43.3167 -79.5667 203° Southwest 400 460 22,900 1,650 Climbing Toronto Center
Fri 09:37:10 AM 43.2167 -79.6167 200° South 430 495 23,000 250 Climbing Toronto Center
Fri 09:38:10 AM 43.1000 -79.6833 203° Southwest 450 518 23,400 1,350 Climbing Toronto Center
Fri 09:39:10 AM 42.9667 -79.6833 180° South 460 529 25,700 2,300 Climbing Toronto Center
Fri 09:40:10 AM 42.8333 -79.6333 165° South 500 575 28,000 2,094 Climbing Toronto Center
Fri 09:40:56 AM 42.7622 -79.5822 152° Southeast 480 552 29,400 2,038 Climbing Cleveland Center
Fri 09:41:56 AM 42.6300 -79.4769 150° Southeast 500 575 31,600 1,800 Climbing Cleveland Center
Fri 09:42:56 AM 42.4997 -79.3694 149° Southeast 526 605 33,000 700 Climbing Cleveland Center
Fri 09:43:56 AM 42.3506 -79.2514 150° Southeast 553 636 33,000 900 Level Cleveland Center
Fri 09:44:56 AM 42.2200 -79.1478 150° Southeast 559 643 34,800 1,948 Climbing Cleveland Center
Fri 09:47:10 AM 41.9333 -78.8667 144° Southeast 550 633 39,300 1,967 Climbing Toronto Center
Fri 09:47:56 AM 41.8400 -78.8078 155° Southeast 549 632 40,700 962 Climbing Cleveland Center
Fri 09:48:56 AM 41.7172 -78.6969 146° Southeast 549 632 41,000 150 Climbing Cleveland Center
Fri 09:49:56 AM 41.5925 -78.5869 147° Southeast 539 620 41,000 1,032 Level Cleveland Center
Fri 09:51:33 AM 41.4219 -78.4353 146° Southeast 513 590 43,700 1,558 Climbing New York Center
Fri 09:52:30 AM 41.3078 -78.3311 146° Southeast 500 575 45,000 661 Climbing New York Center
Fri 09:53:31 AM 41.1894 -78.2267 146° Southeast 500 575 45,000  Level New York Center
Fri 09:54:31 AM 41.0647 -78.1194 147° Southeast 515 593 45,000  Level New York Center
Fri 09:55:29 AM 40.9378 -78.0122 147° Southeast 530 610 45,000  Level New York Center
Fri 09:56:30 AM 40.8125 -77.9167 150° Southeast 530 610 45,000  Level New York Center
Fri 09:57:31 AM 40.6825 -77.8239 152° Southeast 530 610 45,000  Level New York Center
Fri 09:58:31 AM 40.5567 -77.7317 151° Southeast 530 610 45,000  Level New York Center
Fri 09:59:29 AM 40.4214 -77.6553 157° South 525 604 45,000  Level New York Center
Fri 10:00:29 AM 40.2853 -77.6308 172° South 502 578 45,000  Level New York Center
Fri 10:02:52 AM 39.9378 -77.6506 182° South 505 581 45,000  Level Washington Center
Fri 10:03:53 AM 39.7981 -77.6628 184° South 505 581 45,000  Level Washington Center
Fri 10:04:51 AM 39.6583 -77.6697 182° South 510 587 45,000  Level Washington Center
Fri 10:05:52 AM 39.5164 -77.6792 183° South 510 587 45,000  Level Washington Center
Fri 10:06:53 AM 39.3786 -77.6858 182° South 510 587 45,000  Level Washington Center
Fri 10:07:53 AM 39.2411 -77.6953 183° South 510 587 45,000  Level Washington Center
Fri 10:08:53 AM 39.1033 -77.7019 182° South 505 581 45,000  Level Washington Center
Fri 10:09:51 AM 38.9614 -77.7086 182° South 505 581 45,000  Level Washington Center
Fri 10:10:52 AM 38.8403 -77.7183 184° South 493 567 45,000  Level Washington Center
Fri 10:11:53 AM 38.6964 -77.7250 182° South 502 578 45,000  Level Washington Center
Fri 10:12:54 AM 38.5650 -77.7344 183° South 502 578 45,000  Level Washington Center
Fri 10:13:51 AM 38.4292 -77.7411 182° South 495 570 45,000  Level Washington Center
Fri 10:14:52 AM 38.2914 -77.7503 183° South 500 575 45,000  Level Washington Center
Fri 10:15:53 AM 38.1536 -77.7569 182° South 500 575 45,000  Level Washington Center
Fri 10:16:51 AM 38.0097 -77.7581 180° South 493 567 45,000  Level Washington Center
Fri 10:17:52 AM 37.8867 -77.7678 184° South 488 562 45,000  Level Washington Center
Fri 10:18:51 AM 37.7342 -77.7792 183° South 499 574 45,000  Level Washington Center
Fri 10:19:52 AM 37.6108 -77.7861 183° South 499 574 45,000  Level Washington Center
Fri 10:20:53 AM 37.4628 -77.7922 182° South 499 574 45,000  Level Washington Center
Fri 10:21:52 AM 37.3394 -77.8044 185° South 499 574 45,000  Level Washington Center
Fri 10:22:52 AM 37.1892 -77.8131 183° South 499 574 45,000  Level Washington Center
Fri 10:23:53 AM 37.0681 -77.8147 181° South 493 567 45,000  Level Washington Center
Fri 10:24:53 AM 36.9200 -77.8183 181° South 493 567 45,000  Level Washington Center
Fri 10:25:52 AM 36.7842 -77.8247 182° South 493 567 45,000  Level Washington Center
Fri 10:26:52 AM 36.6506 -77.8339 183° South 493 567 45,000  Level Washington Center
Fri 10:27:53 AM 36.5147 -77.8456 184° South 493 567 45,000  Level Washington Center
Fri 10:28:51 AM 36.3789 -77.8494 181° South 493 567 45,000  Level Washington Center
Fri 10:29:51 AM 36.2411 -77.8556 182° South 493 567 45,000  Level Washington Center
Fri 10:30:51 AM 36.1033 -77.8619 182° South 498 573 45,000  Level Washington Center
Fri 10:31:52 AM 35.9656 -77.8683 182° South 498 573 45,000  Level Washington Center
Fri 10:32:53 AM 35.8275 -77.8772 183° South 498 573 45,000  Level Washington Center
Fri 10:33:51 AM 35.6897 -77.8808 181° South 498 573 45,000  Level Washington Center
Fri 10:34:51 AM 35.5644 -77.8875 182° South 498 573 45,000  Level Washington Center
Fri 10:35:52 AM 35.4244 -77.8961 183° South 498 573 45,000  Level Washington Center
Fri 10:36:52 AM 35.2867 -77.9000 181° South 498 573 45,000  Level Washington Center
Fri 10:37:53 AM 35.1508 -77.9114 184° South 493 567 45,000  Level Washington Center
Fri 10:38:51 AM 35.0150 -77.9175 182° South 493 567 45,000  Level Washington Center
Fri 10:39:51 AM 34.8772 -77.9236 182° South 498 573 45,000  Level Washington Center
Fri 10:40:52 AM 34.7311 -77.9347 184° South 492 566 45,000  Level Washington Center
Fri 10:41:53 AM 34.5953 -77.9433 183° South 492 566 45,000  Level Washington Center
Fri 10:42:51 AM 34.4594 -77.9497 182° South 492 566 45,000  Level Washington Center
Fri 10:46:04 AM 34.0278 -77.9564 181° South 499 574 45,000  Level Jacksonville Center
Fri 10:47:04 AM 33.8900 -77.9517 178° South 504 580 45,000  Level Jacksonville Center
Fri 10:48:04 AM 33.7558 -77.9417 176° South 504 580 45,000  Level Jacksonville Center
Fri 10:49:04 AM 33.6158 -77.9347 178° South 509 586 45,000  Level Jacksonville Center
Fri 10:50:04 AM 33.4800 -77.9250 177° South 498 573 45,000  Level Jacksonville Center
Fri 10:51:04 AM 33.3439 -77.9175 177° South 498 573 45,000  Level Jacksonville Center
Fri 10:52:04 AM 33.2039 -77.9081 177° South 504 580 45,000  Level Jacksonville Center
Fri 10:53:04 AM 33.0617 -77.9011 178° South 504 580 45,000  Level Jacksonville Center
Fri 10:54:04 AM 32.9214 -77.8917 177° South 509 586 45,000  Level Jacksonville Center
Fri 10:55:04 AM 32.7833 -77.8844 177° South 509 586 45,000  Level Jacksonville Center
Fri 10:56:04 AM 32.6453 -77.8772 177° South 504 580 45,000  Level Jacksonville Center
Fri 10:57:04 AM 32.5050 -77.8653 176° South 504 580 45,000  Level Jacksonville Center
Fri 10:58:04 AM 32.3664 -77.8458 173° South 499 574 45,000  Level Jacksonville Center
Fri 10:59:04 AM 32.2292 -77.8536 183° South 499 574 45,000  Level Jacksonville Center
Fri 11:00:04 AM 32.0886 -77.8367 174° South 499 574 45,000  Level Jacksonville Center
Fri 11:01:04 AM 31.9508 -77.8344 179° South 499 574 45,000  Level Jacksonville Center
Fri 11:02:04 AM 31.8106 -77.8250 177° South 499 574 45,000  Level Jacksonville Center
Fri 11:03:04 AM 31.6742 -77.8106 175° South 499 574 45,000  Level Jacksonville Center
Fri 11:04:04 AM 31.5361 -77.8036 178° South 499 574 45,000  Level Jacksonville Center
Fri 11:05:04 AM 31.3961 -77.7942 177° South 504 580 45,000  Level Jacksonville Center
Fri 11:06:04 AM 31.2561 -77.7919 179° South 504 580 45,000  Level Jacksonville Center
Fri 11:07:04 AM 31.1158 -77.7850 178° South 504 580 45,000  Level Jacksonville Center
Fri 11:08:04 AM 30.9761 -77.7853 180° South 499 574 45,000  Level Jacksonville Center
Fri 11:09:04 AM 30.8397 -77.7686 174° South 499 574 45,000  Level Jacksonville Center
Fri 11:10:58 AM 30.5736 -77.7614 179° South 491 565 45,000  Level Miami Center
Fri 11:11:58 AM 30.4381 -77.7531 177° South 500 575 45,000  Level Miami Center
Fri 11:12:58 AM 30.2858 -77.7542 180° South 492 566 45,000  Level Miami Center
Fri 11:13:58 AM 30.1358 -77.7386 175° South 504 580 45,000  Level Miami Center
Fri 11:14:58 AM 30.0003 -77.7350 179° South 513 590 45,000  Level Miami Center
Fri 11:15:58 AM 29.8503 -77.7219 176° South 519 597 45,000  Level Miami Center
Fri 11:16:58 AM 29.7128 -77.7136 177° South 516 594 45,000  Level Miami Center
Fri 11:17:58 AM 29.5731 -77.7078 178° South 508 585 45,000  Level Miami Center
Fri 11:18:58 AM 29.4333 -77.7019 178° South 514 592 45,000  Level Miami Center
Fri 11:19:58 AM 29.2978 -77.6961 178° South 509 586 45,000  Level Miami Center
Fri 11:20:58 AM 29.1581 -77.6881 177° South 504 580 45,000 -250 Level Miami Center
Fri 11:21:58 AM 29.0078 -77.6772 176° South 514 592 44,500 -1,000 Descending Miami Center
Fri 11:22:58 AM 28.8889 -77.6764 180° South 492 566 43,000 -1,500 Descending Miami Center
Fri 11:23:58 AM 28.7428 -77.6658 176° South 492 566 41,500 -1,500 Descending Miami Center
Fri 11:24:58 AM 28.6053 -77.6603 178° South 498 573 40,000 -1,650 Descending Miami Center
Fri 11:25:58 AM 28.4694 -77.6522 177° South 498 573 38,200 -1,900 Descending Miami Center
Fri 11:26:58 AM 28.3233 -77.6464 178° South 498 573 36,200 -2,000 Descending Miami Center
Fri 11:27:58 AM 28.1858 -77.6408 178° South 504 580 34,200 -1,100 Descending Miami Center
Fri 11:28:58 AM 28.0481 -77.6328 177° South 509 586 34,000 -100 Descending Miami Center
Fri 11:29:58 AM 27.9122 -77.6225 176° South 499 574 34,000  Level Miami Center
Fri 11:30:58 AM 27.7683 -77.6167 178° South 507 583 34,000  Level Miami Center
Fri 11:31:58 AM 27.6283 -77.6089 177° South 507 583 34,000  Level Miami Center
Fri 11:32:58 AM 27.4864 -77.5961 175° South 512 589 34,000  Level Miami Center
Fri 11:33:58 AM 27.3444 -77.5978 181° South 512 589 34,000  Level Miami Center
Fri 11:34:58 AM 27.2044 -77.5828 175° South 512 589 34,000  Level Miami Center
Fri 11:35:58 AM 27.0625 -77.5750 177° South 512 589 34,000 -950 Level Miami Center
Fri 11:36:58 AM 26.9206 -77.5625 176° South 512 589 32,100 -2,000 Descending Miami Center
Fri 11:37:58 AM 26.7828 -77.5522 176° South 517 595 30,000 -1,900 Descending Miami Center
Fri 11:38:58 AM 26.6614 -77.5492 179° South 507 583 28,300 -1,850 Descending Miami Center
Fri 11:39:58 AM 26.5300 -77.5461 179° South 493 567 26,300 -2,000 Descending Miami Center
Fri 11:40:58 AM 26.4025 -77.5383 177° South 469 540 24,300 -2,000 Descending Miami Center
Fri 11:41:58 AM 26.2792 -77.5283 176° South 458 527 22,300 -1,850 Descending Miami Center
Fri 11:42:58 AM 26.1622 -77.5208 177° South 439 505 20,600 -1,750 Descending Miami Center
Fri 11:43:58 AM 26.0475 -77.5133 177° South 428 493 18,800 -1,750 Descending Miami Center
Fri 11:44:58 AM 25.9347 -77.5058 177° South 415 478 17,100 -1,700 Descending Miami Center
Fri 11:45:58 AM 25.8303 -77.4961 175° South 404 465 15,400 -1,600 Descending Miami Center
Fri 11:46:58 AM 25.7361 -77.4908 177° South 370 426 13,900 -1,200 Descending Miami Center
Fri 11:47:58 AM 25.6483 -77.4858 177° South 337 388 13,000 -450 Descending Miami Center
Fri 11:48:58 AM 25.5628 -77.4808 177° South 322 371 13,000  Level Miami Center
Fri 11:49:58 AM 25.4769 -77.4872 184° South 317 365 13,000 -600 Level Miami Center
Fri 11:50:58 AM 25.3975 -77.5214 201° Southwest 303 349 11,800 -1,200 Descending Miami Center
Fri 11:52:00 AM 25.2770 -77.4630 156° South  Level FlightAware Approximate
Fri 11:59:00 AM 25.0333 -77.4500 318° Northwest  Level FlightAware Approximate
Fri 12:00:00 PM 25.0390 -77.4662 318° Northwest  Level Estimated
Fri 12:01:00 PM 25.0390 -77.4662 318° Northwest  Level Estimated
Fri 12:02:00 PM 25.0390 -77.4662 318° Northwest  Level Estimated
Fri 12:03:00 PM 25.0390 -77.4662 318° Northwest  Level Estimated
Fri 12:04:00 PM 25.0390 -77.4662 318° Northwest  Level Estimated
Fri 12:05:00 PM 25.0390 -77.4662 318° Northwest  Level Estimated
Fri 12:06:00 PM 25.0390 -77.4662 318° Northwest  Level Estimated
Fri 12:07:00 PM 25.0390 -77.4662 318° Northwest  Level Estimated
Fri 12:08:00 PM 25.0390 -77.4662 318° Northwest  Level Estimated
Fri 12:09:00 PM 25.0390 -77.4662 318° Northwest  Level Estimated
Fri 12:10:00 PM 25.0390 -77.4662 318° Northwest  Level Estimated
Fri 12:11:00 PM 25.0390 -77.4662 318° Northwest  Level Estimated

Login

Don't have an account? Register now (free) for customized features, flight alerts, and more!